Time;durP1;ratioP1;P1;durP2;ratioP2;P2;SDS_P1;SDS_P2;PMS_P1;PMS_P2;Temp;Humidity;BMP_temperature;BMP_pressure;BME280_temperature;BME280_humidity;BME280_pressure;Samples;Min_cycle;Max_cycle;Signal;HPM_P1;HPM_P2
2022/10/19 00:01:38;;;;;;;0.10;0.10;;;8.40;99.90;;;;;;4957161;29;20028;-75
2022/10/19 00:04:04;;;;;;;0.30;0.30;;;8.40;99.90;;;;;;4956261;29;20004;-77
2022/10/19 00:06:32;;;;;;;0.10;0.10;;;8.40;99.90;;;;;;4941364;29;20024;-77
2022/10/19 00:09:13;;;;;;;0.10;0.10;;;8.20;99.90;;;;;;4955105;29;20064;-76
2022/10/19 00:11:42;;;;;;;0.00;0.00;;;8.30;99.90;;;;;;4956825;29;20058;-77
2022/10/19 00:14:13;;;;;;;0.35;0.35;;;8.20;99.90;;;;;;4954898;28;20024;-80
2022/10/19 00:16:40;;;;;;;0.00;0.00;;;8.20;99.90;;;;;;4957282;29;20048;-76
2022/10/19 00:19:30;;;;;;;0.00;0.00;;;8.20;99.90;;;;;;4954033;29;20519;-80
2022/10/19 00:21:56;;;;;;;7.72;7.35;;;8.20;99.90;;;;;;4965290;28;20046;-80
2022/10/19 00:24:22;;;;;;;0.00;0.00;;;8.30;99.90;;;;;;4993789;28;20023;-77
2022/10/19 00:26:51;;;;;;;0.03;0.03;;;8.20;99.90;;;;;;4997174;28;20006;-78
2022/10/19 00:29:16;;;;;;;1.30;1.30;;;8.20;99.90;;;;;;4994156;28;20113;-77
2022/10/19 00:31:42;;;;;;;0.10;0.10;;;8.20;99.90;;;;;;4995028;28;20010;-78
2022/10/19 00:34:08;;;;;;;0.10;0.10;;;8.10;99.90;;;;;;4994580;28;20082;-77
2022/10/19 00:36:41;;;;;;;0.65;0.65;;;8.10;99.90;;;;;;4996945;28;20006;-76
2022/10/19 00:39:27;;;;;;;0.00;0.00;;;8.10;99.90;;;;;;4994929;28;20022;-76
2022/10/19 00:41:53;;;;;;;0.00;0.00;;;8.00;99.90;;;;;;4995848;28;20011;-77
2022/10/19 00:44:18;;;;;;;0.00;0.00;;;7.80;99.90;;;;;;4995338;28;20030;-77
2022/10/19 00:46:49;;;;;;;0.00;0.00;;;7.80;99.90;;;;;;4995335;28;20022;-76
2022/10/19 00:49:19;;;;;;;0.00;0.00;;;7.90;99.90;;;;;;4996408;28;20014;-78
2022/10/19 00:51:49;;;;;;;0.10;0.10;;;7.80;99.90;;;;;;4996935;28;20035;-77
2022/10/19 00:54:16;;;;;;;0.00;0.00;;;7.80;99.90;;;;;;5000083;28;20022;-78
2022/10/19 00:56:44;;;;;;;0.03;0.03;;;7.80;99.90;;;;;;4999851;28;20007;-76
2022/10/19 00:59:13;;;;;;;0.00;0.00;;;7.80;99.90;;;;;;4998513;28;20007;-77
2022/10/19 01:01:40;;;;;;;0.00;0.00;;;7.70;99.90;;;;;;4999517;28;20023;-77
2022/10/19 01:04:07;;;;;;;1.20;1.17;;;7.70;99.90;;;;;;4999237;28;20022;-77
2022/10/19 01:06:36;;;;;;;0.00;0.00;;;7.70;99.90;;;;;;4999719;28;20011;-78
2022/10/19 01:09:02;;;;;;;4.15;3.97;;;7.70;99.90;;;;;;4999172;28;20042;-77
2022/10/19 01:11:50;;;;;;;0.00;0.00;;;7.70;99.90;;;;;;4999720;28;20027;-76
2022/10/19 01:14:35;;;;;;;0.00;0.00;;;7.70;99.90;;;;;;4999353;28;20070;-76
2022/10/19 01:17:22;;;;;;;0.03;0.03;;;7.60;99.90;;;;;;4999533;28;20042;-76
2022/10/19 01:20:15;;;;;;;0.00;0.00;;;7.70;99.90;;;;;;4999430;28;20082;-77
2022/10/19 01:23:29;;;;;;;0.10;0.10;;;7.60;99.90;;;;;;4998869;28;20050;-76
2022/10/19 01:26:05;;;;;;;0.00;0.00;;;7.60;99.90;;;;;;4921242;29;20029;-76
2022/10/19 01:29:08;;;;;;;0.00;0.00;;;7.60;99.90;;;;;;4904114;29;20037;-76
2022/10/19 01:31:49;;;;;;;0.10;0.10;;;7.60;99.90;;;;;;4920403;29;20064;-77
2022/10/19 01:34:46;;;;;;;0.00;0.00;;;7.50;99.90;;;;;;4919243;29;20060;-76
2022/10/19 01:37:39;;;;;;;0.00;0.00;;;7.50;99.90;;;;;;4920123;29;20076;-76
2022/10/19 01:40:23;;;;;;;0.00;0.00;;;7.50;99.90;;;;;;4919998;29;20029;-76
2022/10/19 01:43:04;;;;;;;0.00;0.00;;;7.50;99.90;;;;;;4920435;29;20032;-76
2022/10/19 01:45:49;;;;;;;0.00;0.00;;;7.40;99.90;;;;;;4918382;29;20037;-76
2022/10/19 01:48:32;;;;;;;0.00;0.00;;;7.40;99.90;;;;;;4921056;29;20032;-76
2022/10/19 01:51:44;;;;;;;0.00;0.00;;;7.40;99.90;;;;;;4921080;29;20040;-76
2022/10/19 01:54:14;;;;;;;0.00;0.00;;;7.30;99.90;;;;;;4920015;29;20040;-77
2022/10/19 01:56:44;;;;;;;0.00;0.00;;;7.30;99.90;;;;;;4921652;29;20040;-78
2022/10/19 01:59:15;;;;;;;0.10;0.10;;;7.40;99.90;;;;;;4919954;29;20060;-77
2022/10/19 02:01:45;;;;;;;0.00;0.00;;;7.30;99.90;;;;;;4950652;28;20102;-76
2022/10/19 02:04:14;;;;;;;0.00;0.00;;;7.30;99.90;;;;;;4980370;28;20015;-77
2022/10/19 02:06:40;;;;;;;1.45;1.45;;;7.30;99.90;;;;;;4998214;28;20057;-77
2022/10/19 02:09:16;;;;;;;0.00;0.00;;;7.30;99.90;;;;;;4999185;28;20054;-78
2022/10/19 02:11:58;;;;;;;5.30;3.25;;;7.30;99.90;;;;;;4999077;28;20039;-76
2022/10/19 02:14:52;;;;;;;0.10;0.10;;;7.20;99.90;;;;;;4981007;28;20014;-76
2022/10/19 02:17:21;;;;;;;;;;;7.20;99.90;;;;;;4999144;28;20046;-78
2022/10/19 02:20:20;;;;;;;0.10;0.10;;;7.20;99.90;;;;;;4981344;28;19921;-75
2022/10/19 02:23:05;;;;;;;0.10;0.10;;;7.10;99.90;;;;;;4956738;29;20050;-76
2022/10/19 02:25:51;;;;;;;0.00;0.00;;;7.10;99.90;;;;;;4956864;29;20020;-76
2022/10/19 02:28:17;;;;;;;0.08;0.08;;;;;;;;;;4994971;23;20037;-76
2022/10/19 02:30:43;;;;;;;0.00;0.00;;;7.10;99.90;;;;;;4997586;28;20046;-75
2022/10/19 02:33:11;;;;;;;0.00;0.00;;;7.10;99.90;;;;;;4997787;28;20018;-77
2022/10/19 02:35:36;;;;;;;0.05;0.05;;;7.10;99.90;;;;;;4997578;28;20058;-76
2022/10/19 02:38:29;;;;;;;0.00;0.00;;;7.10;99.90;;;;;;4998342;28;20067;-76
2022/10/19 02:41:04;;;;;;;0.00;0.00;;;5.30;99.90;;;;;;4994769;28;20029;-77
2022/10/19 02:43:35;;;;;;;0.00;0.00;;;7.10;99.90;;;;;;4998501;28;20051;-76
2022/10/19 02:46:06;;;;;;;4.20;4.00;;;7.00;99.90;;;;;;4998051;28;20034;-77
2022/10/19 02:48:34;;;;;;;0.10;0.10;;;7.00;99.90;;;;;;4998489;28;20022;-76
2022/10/19 02:50:59;;;;;;;0.00;0.00;;;7.00;99.90;;;;;;4997014;28;20035;-77
2022/10/19 02:53:25;;;;;;;0.03;0.03;;;7.00;99.90;;;;;;4997089;28;20046;-77
2022/10/19 02:55:51;;;;;;;0.38;0.38;;;7.00;99.90;;;;;;4997098;28;20018;-76
2022/10/19 02:58:17;;;;;;;0.10;0.10;;;6.90;99.90;;;;;;4996620;28;20127;-75
2022/10/19 03:01:04;;;;;;;0.00;0.00;;;7.00;99.90;;;;;;4997387;28;20070;-76
2022/10/19 03:03:33;;;;;;;0.10;0.10;;;7.00;99.90;;;;;;4995885;28;20027;-76
2022/10/19 03:06:02;;;;;;;0.00;0.00;;;6.90;99.90;;;;;;4996164;28;20031;-76
2022/10/19 03:08:27;;;;;;;0.10;0.10;;;6.90;99.90;;;;;;4995394;28;20050;-76
2022/10/19 03:10:53;;;;;;;0.10;0.10;;;6.90;99.90;;;;;;4996430;28;20042;-76
2022/10/19 03:13:20;;;;;;;0.20;0.20;;;6.80;99.90;;;;;;4996929;28;20007;-75
2022/10/19 03:15:46;;;;;;;0.00;0.00;;;6.80;99.90;;;;;;4996285;28;20493;-76
2022/10/19 03:18:16;;;;;;;0.10;0.10;;;6.70;99.90;;;;;;4996384;28;20074;-76
2022/10/19 03:20:42;;;;;;;0.10;0.10;;;6.70;99.90;;;;;;4995923;28;20022;-76
2022/10/19 03:23:10;;;;;;;0.68;0.68;;;6.70;99.90;;;;;;4996473;28;20041;-76
2022/10/19 03:25:42;;;;;;;0.10;0.10;;;6.80;99.90;;;;;;4995948;28;20032;-76
2022/10/19 03:28:08;;;;;;;0.10;0.10;;;6.80;99.90;;;;;;4995743;28;20031;-76
2022/10/19 03:30:59;;;;;;;0.10;0.10;;;6.80;99.90;;;;;;4996993;28;20102;-76
2022/10/19 03:33:25;;;;;;;0.00;0.00;;;6.80;99.90;;;;;;4997064;28;20007;-76
2022/10/19 03:36:12;;;;;;;2.85;2.40;;;6.80;99.90;;;;;;4997404;28;20062;-77
2022/10/19 03:38:38;;;;;;;0.00;0.00;;;6.80;99.90;;;;;;4996955;28;20019;-76
2022/10/19 03:41:15;;;;;;;0.00;0.00;;;6.70;99.90;;;;;;4996921;28;20059;-77
2022/10/19 03:43:42;;;;;;;0.10;0.10;;;6.70;99.90;;;;;;4995164;28;20019;-77
2022/10/19 03:46:08;;;;;;;0.00;0.00;;;6.70;99.90;;;;;;4994625;28;20054;-77
2022/10/19 03:49:00;;;;;;;0.10;0.10;;;6.80;99.90;;;;;;4997038;28;20018;-76
2022/10/19 03:51:28;;;;;;;0.00;0.00;;;6.80;99.90;;;;;;4996411;28;20054;-76
2022/10/19 03:54:20;;;;;;;0.10;0.10;;;6.80;99.90;;;;;;4997254;28;20015;-77
2022/10/19 03:56:48;;;;;;;0.30;0.30;;;6.80;99.90;;;;;;4996558;28;20038;-77
2022/10/19 03:59:16;;;;;;;0.00;0.00;;;6.50;99.90;;;;;;4996626;28;20144;-75
2022/10/19 04:01:44;;;;;;;0.10;0.10;;;6.60;99.90;;;;;;4996824;28;20027;-76
2022/10/19 04:04:13;;;;;;;0.00;0.00;;;6.60;99.90;;;;;;4995849;28;20019;-76
2022/10/19 04:07:02;;;;;;;0.00;0.00;;;6.60;99.90;;;;;;4996559;28;20053;-76
2022/10/19 04:09:36;;;;;;;0.10;0.10;;;6.60;99.90;;;;;;4996395;28;20038;-76
2022/10/19 04:12:02;;;;;;;0.00;0.00;;;6.60;99.90;;;;;;4997052;28;20058;-76
2022/10/19 04:14:31;;;;;;;0.03;0.03;;;6.60;99.90;;;;;;4993834;28;20015;-76
2022/10/19 04:17:09;;;;;;;0.00;0.00;;;6.50;99.90;;;;;;4995156;28;20054;-79
2022/10/19 04:19:34;;;;;;;0.10;0.10;;;6.40;99.90;;;;;;4995158;28;20035;-76
2022/10/19 04:22:08;;;;;;;0.00;0.00;;;6.40;99.90;;;;;;4993028;28;20018;-77
2022/10/19 04:24:34;;;;;;;0.10;0.10;;;6.20;99.90;;;;;;4993368;28;20023;-76
2022/10/19 04:27:04;;;;;;;0.00;0.00;;;6.40;99.90;;;;;;4994581;28;20041;-77
2022/10/19 04:29:39;;;;;;;0.10;0.10;;;6.40;99.90;;;;;;4997094;28;20062;-76
2022/10/19 04:32:05;;;;;;;0.00;0.00;;;6.40;99.90;;;;;;4994876;28;20031;-76
2022/10/19 04:34:31;;;;;;;0.00;0.00;;;6.40;99.90;;;;;;4997862;28;20027;-77
2022/10/19 04:37:06;;;;;;;0.10;0.10;;;6.40;99.90;;;;;;4998153;28;20317;-77
2022/10/19 04:39:53;;;;;;;0.08;0.08;;;6.40;99.90;;;;;;4998497;28;20027;-76
2022/10/19 04:42:51;;;;;;;3.00;2.80;;;6.30;99.90;;;;;;4981222;28;20652;-76
2022/10/19 04:45:25;;;;;;;0.03;0.03;;;6.30;99.90;;;;;;4974092;28;20224;-76
2022/10/19 04:47:55;;;;;;;0.00;0.00;;;6.40;99.90;;;;;;4974039;28;20027;-76
2022/10/19 04:51:02;;;;;;;0.10;0.10;;;6.30;99.90;;;;;;4971628;28;20031;-76
2022/10/19 04:54:33;;;;;;;0.10;0.10;;;6.30;99.90;;;;;;4955980;28;20051;-76
2022/10/19 05:11:04;;;;;;;0.10;0.10;;;6.20;99.90;;;;;;5077540;23;20057;-76
2022/10/19 05:13:31;;;;;;;0.10;0.10;;;6.20;99.90;;;;;;5017032;28;20046;-76
2022/10/19 05:16:36;;;;;;;0.10;0.10;;;6.10;99.90;;;;;;5016587;28;20119;-76
2022/10/19 05:19:02;;;;;;;0.00;0.00;;;6.20;99.90;;;;;;5018369;28;20046;-77
2022/10/19 05:21:28;;;;;;;0.10;0.10;;;6.20;99.90;;;;;;5001029;28;20022;-76
2022/10/19 05:23:55;;;;;;;3.80;3.42;;;6.20;99.90;;;;;;5018487;28;20053;-77
2022/10/19 05:26:25;;;;;;;0.08;0.08;;;6.20;99.90;;;;;;5017678;28;20018;-76
2022/10/19 05:34:10;;;;;;;0.10;0.10;;;6.20;99.90;;;;;;1381942;26;20051;-77
2022/10/19 05:36:47;;;;;;;0.10;0.10;;;6.20;99.90;;;;;;4980637;28;20033;-78
2022/10/19 05:39:16;;;;;;;0.10;0.10;;;6.20;99.90;;;;;;4980509;28;20051;-78
2022/10/19 05:41:46;;;;;;;0.10;0.10;;;6.20;99.90;;;;;;4982233;28;20003;-78
2022/10/19 05:44:20;;;;;;;0.15;0.15;;;6.20;99.90;;;;;;4999402;28;20023;-80
2022/10/19 05:46:47;;;;;;;0.10;0.10;;;6.30;99.90;;;;;;4982619;28;20034;-78
2022/10/19 05:49:16;;;;;;;0.00;0.00;;;6.20;99.90;;;;;;4982030;28;20027;-78
2022/10/19 05:52:05;;;;;;;0.20;0.20;;;;;;;;;;4998473;28;20041;-78
2022/10/19 05:54:55;;;;;;;0.00;0.00;;;6.40;99.90;;;;;;4981569;28;20039;-78
2022/10/19 05:57:40;;;;;;;0.28;0.28;;;;;;;;;;4997227;28;20043;-78
2022/10/19 06:00:26;;;;;;;0.00;0.00;;;;;;;;;;4998724;28;20011;-77
2022/10/19 06:03:04;;;;;;;5.65;5.50;;;6.50;99.90;;;;;;4981998;28;20027;-77
2022/10/19 06:05:31;;;;;;;2.33;2.20;;;6.50;99.90;;;;;;4999355;28;20015;-78
2022/10/19 06:07:56;;;;;;;0.00;0.00;;;6.60;99.90;;;;;;4999172;28;20038;-78
2022/10/19 06:10:27;;;;;;;0.10;0.10;;;6.70;99.90;;;;;;4998884;28;20083;-79
2022/10/19 06:12:53;;;;;;;0.10;0.10;;;6.80;99.90;;;;;;4998095;28;20035;-80
2022/10/19 06:15:20;;;;;;;0.10;0.10;;;6.80;99.90;;;;;;4998212;28;20046;-78
2022/10/19 06:17:45;;;;;;;0.00;0.00;;;7.00;99.90;;;;;;4997160;28;20038;-77
2022/10/19 06:20:12;;;;;;;0.05;0.05;;;7.60;99.90;;;;;;4998015;28;20015;-79
2022/10/19 06:22:41;;;;;;;0.20;0.20;;;7.10;99.90;;;;;;4998077;28;20018;-78
2022/10/19 06:25:39;;;;;;;0.03;0.03;;;7.10;99.90;;;;;;4998799;28;20080;-78
2022/10/19 06:28:05;;;;;;;3.72;0.95;;;7.10;99.90;;;;;;5173087;23;20044;-80
2022/10/19 06:30:30;;;;;;;0.10;0.10;;;7.20;99.90;;;;;;5016834;28;20049;-79
2022/10/19 06:32:58;;;;;;;0.10;0.10;;;7.30;99.90;;;;;;5017170;28;20042;-78
2022/10/19 06:35:24;;;;;;;0.10;0.10;;;7.40;99.90;;;;;;5017043;28;20023;-78
2022/10/19 06:37:49;;;;;;;0.10;0.10;;;7.50;99.90;;;;;;5016906;28;20299;-79
2022/10/19 06:40:15;;;;;;;0.00;0.00;;;7.50;99.90;;;;;;5016283;28;20010;-78
2022/10/19 06:42:41;;;;;;;0.00;0.00;;;7.50;99.90;;;;;;5017237;28;20010;-78
2022/10/19 06:45:36;;;;;;;0.00;0.00;;;7.60;99.90;;;;;;5016664;28;20022;-80
2022/10/19 06:48:30;;;;;;;0.00;0.00;;;7.60;99.90;;;;;;4961156;29;20020;-78
2022/10/19 06:51:06;;;;;;;0.00;0.00;;;7.80;99.90;;;;;;4959130;29;20046;-79
2022/10/19 06:53:41;;;;;;;0.10;0.10;;;7.90;99.90;;;;;;4972984;29;20272;-77
2022/10/19 06:56:08;;;;;;;0.25;0.25;;;8.20;99.90;;;;;;4971164;29;20027;-80
2022/10/19 06:59:03;;;;;;;0.08;0.08;;;8.20;99.90;;;;;;4954584;28;20043;-79
2022/10/19 07:02:15;;;;;;;0.00;0.00;;;8.20;99.90;;;;;;4953674;29;20102;-77
2022/10/19 07:04:42;;;;;;;0.00;0.00;;;8.40;99.90;;;;;;4956929;28;20298;-78
2022/10/19 07:07:41;;;;;;;0.00;0.00;;;10.30;99.90;;;;;;4958339;29;20032;-78
2022/10/19 07:10:16;;;;;;;0.00;0.00;;;8.80;99.90;;;;;;4919498;29;20037;-78
2022/10/19 07:12:44;;;;;;;0.10;0.10;;;8.90;99.90;;;;;;4913303;29;20041;-78
2022/10/19 07:15:11;;;;;;;0.00;0.00;;;9.00;99.90;;;;;;4904882;29;20525;-78
2022/10/19 07:17:39;;;;;;;0.00;0.00;;;9.10;99.90;;;;;;4901493;29;20786;-78
2022/10/19 07:20:06;;;;;;;0.03;0.03;;;9.20;99.90;;;;;;4864074;29;20129;-78
2022/10/19 07:22:36;;;;;;;0.20;0.20;;;9.40;99.90;;;;;;4858685;29;20056;-78
2022/10/19 07:25:03;;;;;;;0.10;0.10;;;9.60;99.90;;;;;;4855886;29;20041;-77
2022/10/19 07:27:30;;;;;;;0.08;0.08;;;9.70;99.90;;;;;;4846550;29;20050;-78
2022/10/19 07:29:59;;;;;;;0.10;0.10;;;9.90;99.90;;;;;;4853008;29;20053;-77
2022/10/19 07:32:34;;;;;;;0.10;0.10;;;9.80;99.90;;;;;;4865297;29;20049;-77
2022/10/19 07:35:10;;;;;;;0.00;0.00;;;10.10;99.90;;;;;;4876767;29;20045;-78
2022/10/19 07:37:39;;;;;;;0.10;0.10;;;10.30;99.90;;;;;;4878696;29;20025;-78
2022/10/19 07:40:14;;;;;;;0.10;0.10;;;10.40;99.90;;;;;;4877499;29;20029;-80
2022/10/19 07:43:00;;;;;;;0.10;0.10;;;10.40;99.90;;;;;;4889268;29;20029;-78
2022/10/19 07:45:26;;;;;;;0.30;0.30;;;10.50;99.90;;;;;;4886546;29;20044;-81
2022/10/19 07:47:52;;;;;;;0.30;0.30;;;10.80;99.90;;;;;;4885890;29;20021;-78
2022/10/19 07:50:19;;;;;;;0.10;0.10;;;11.00;99.90;;;;;;4912355;28;20174;-77
2022/10/19 07:53:16;;;;;;;0.75;0.75;;;11.20;99.90;;;;;;4992189;28;20019;-78
2022/10/19 07:55:42;;;;;;;0.15;0.15;;;11.30;99.90;;;;;;4993005;28;20031;-79
2022/10/19 07:58:07;;;;;;;0.17;0.17;;;11.40;99.90;;;;;;4994429;28;20011;-80
2022/10/19 08:00:36;;;;;;;4.30;4.05;;;11.50;99.90;;;;;;4991804;28;20011;-78
2022/10/19 08:03:15;;;;;;;0.10;0.10;;;11.60;99.90;;;;;;4996081;28;20011;-83
2022/10/19 08:05:41;;;;;;;0.20;0.20;;;11.70;99.90;;;;;;4996128;28;20041;-80
2022/10/19 08:08:06;;;;;;;0.47;0.47;;;11.90;99.90;;;;;;4989570;28;20019;-79
2022/10/19 08:10:34;;;;;;;3.95;3.80;;;12.10;99.90;;;;;;4988163;28;20054;-84
2022/10/19 08:13:15;;;;;;;0.20;0.20;;;12.20;99.90;;;;;;4955531;28;20038;-81
2022/10/19 08:15:41;;;;;;;3.15;2.92;;;12.30;99.90;;;;;;4948255;28;20031;-81
2022/10/19 08:18:06;;;;;;;2.60;2.50;;;12.50;99.90;;;;;;4964618;28;20309;-83
2022/10/19 08:20:32;;;;;;;2.92;2.75;;;12.70;99.90;;;;;;4946485;28;20042;-87
2022/10/19 08:22:58;;;;;;;6.05;5.72;;;12.70;99.90;;;;;;4963910;28;20188;-87
2022/10/19 08:25:24;;;;;;;0.25;0.25;;;12.80;99.90;;;;;;4964758;28;20031;-87
2022/10/19 08:27:49;;;;;;;0.30;0.30;;;13.00;99.90;;;;;;4964159;28;20425;-84
2022/10/19 08:30:15;;;;;;;1.75;1.65;;;13.20;99.90;;;;;;4963674;28;20029;-84
2022/10/19 08:32:41;;;;;;;0.45;0.45;;;13.20;99.90;;;;;;4964498;28;20394;-84
2022/10/19 08:35:07;;;;;;;2.50;2.30;;;13.40;99.90;;;;;;4964102;28;20015;-80
2022/10/19 08:37:32;;;;;;;1.02;1.00;;;13.60;99.90;;;;;;4964570;28;20034;-87
2022/10/19 08:39:58;;;;;;;4.15;2.25;;;13.70;99.90;;;;;;4964237;28;20037;-82
2022/10/19 08:42:41;;;;;;;0.63;0.63;;;13.90;99.90;;;;;;4963380;28;20110;-85
2022/10/19 08:45:07;;;;;;;0.10;0.10;;;14.60;99.90;;;;;;4963743;28;20019;-82
2022/10/19 08:48:14;;;;;;;0.98;0.98;;;14.20;99.90;;;;;;4963178;28;20379;-84
2022/10/19 08:50:44;;;;;;;0.60;0.55;;;14.30;99.90;;;;;;4941704;28;20064;-80
2022/10/19 08:53:31;;;;;;;0.45;0.45;;;14.20;99.90;;;;;;4963599;28;20023;-84
2022/10/19 08:56:28;;;;;;;0.20;0.20;;;14.30;99.90;;;;;;4946368;28;20065;-85
2022/10/19 08:59:20;;;;;;;0.20;0.20;;;14.50;99.90;;;;;;4962793;28;20040;-79
2022/10/19 09:02:02;;;;;;;4.03;3.50;;;14.70;99.90;;;;;;4963775;28;20031;-83
2022/10/19 09:04:31;;;;;;;0.20;0.20;;;14.90;99.90;;;;;;4963757;28;20109;-85
2022/10/19 09:07:08;;;;;;;0.40;0.40;;;15.10;99.90;;;;;;4963028;28;20229;-84
2022/10/19 09:09:40;;;;;;;0.95;0.95;;;15.20;99.90;;;;;;4963458;28;20015;-82
2022/10/19 09:12:06;;;;;;;0.25;0.25;;;15.20;99.90;;;;;;4962898;28;20027;-84
2022/10/19 09:14:46;;;;;;;0.25;0.25;;;15.20;99.90;;;;;;4962279;28;20030;-83
2022/10/19 09:17:14;;;;;;;0.30;0.30;;;15.10;99.90;;;;;;4945928;28;20344;-83
2022/10/19 09:19:40;;;;;;;0.47;0.47;;;15.10;99.90;;;;;;4963291;28;20114;-79
2022/10/19 09:22:07;;;;;;;2.15;2.05;;;15.10;99.90;;;;;;4963222;28;20114;-82
2022/10/19 09:25:07;;;;;;;0.60;0.60;;;15.20;99.90;;;;;;4963348;28;20030;-83
2022/10/19 09:27:42;;;;;;;0.30;0.30;;;15.30;99.90;;;;;;4931529;28;20529;-86
2022/10/19 09:30:17;;;;;;;0.63;0.63;;;15.70;99.90;;;;;;4946023;28;20042;-90
2022/10/19 09:32:43;;;;;;;0.20;0.20;;;15.70;99.50;;;;;;4946197;28;20045;-90
2022/10/19 09:35:40;;;;;;;0.20;0.20;;;16.00;99.60;;;;;;4963035;28;20281;-88
2022/10/19 09:38:06;;;;;;;0.20;0.20;;;16.20;99.60;;;;;;4945450;28;20185;-93
2022/10/19 09:40:34;;;;;;;0.43;0.43;;;16.40;99.90;;;;;;4963520;28;20161;-89
2022/10/19 09:43:08;;;;;;;1.33;1.33;;;16.70;99.40;;;;;;4963225;28;20030;-81
2022/10/19 09:46:03;;;;;;;5.97;5.72;;;16.90;98.80;;;;;;4962226;28;20035;-81
2022/10/19 09:48:46;;;;;;;1.15;1.08;;;17.00;97.90;;;;;;4937002;28;20166;-90
2022/10/19 09:51:14;;;;;;;0.60;0.60;;;17.40;97.60;;;;;;4962566;28;20332;-88
2022/10/19 09:53:54;;;;;;;0.13;0.13;;;17.40;97.90;;;;;;4963142;28;20341;-84
2022/10/19 09:56:23;;;;;;;0.10;0.10;;;17.50;98.00;;;;;;4964929;28;20027;-88
2022/10/19 09:58:52;;;;;;;1.75;1.65;;;16.90;97.70;;;;;;4944986;28;20066;-84
2022/10/19 10:01:39;;;;;;;1.20;1.15;;;17.70;98.30;;;;;;4963622;28;20027;-85
2022/10/19 10:04:12;;;;;;;0.22;0.22;;;17.50;99.40;;;;;;4945321;28;20307;-83
2022/10/19 10:06:39;;;;;;;2.28;0.40;;;17.50;99.40;;;;;;4962255;28;20564;-81
2022/10/19 10:09:05;;;;;;;0.85;0.85;;;17.70;99.20;;;;;;4962343;28;20030;-79
2022/10/19 10:11:34;;;;;;;1.90;1.77;;;17.90;98.80;;;;;;4962209;28;20049;-86
2022/10/19 10:14:17;;;;;;;0.17;0.17;;;18.50;98.10;;;;;;4961932;28;20023;-80
2022/10/19 10:16:44;;;;;;;0.10;0.10;;;18.00;99.10;;;;;;4961449;28;20474;-82
2022/10/19 10:19:15;;;;;;;0.80;0.77;;;18.10;97.90;;;;;;4962842;28;20051;-84
2022/10/19 10:21:48;;;;;;;3.92;3.40;;;18.30;97.90;;;;;;4963528;28;20037;-80
2022/10/19 10:24:18;;;;;;;0.63;0.63;;;18.60;97.30;;;;;;4963387;28;20421;-77
2022/10/19 10:26:48;;;;;;;0.70;0.70;;;18.80;97.10;;;;;;4963256;28;20050;-77
2022/10/19 10:29:25;;;;;;;3.60;2.40;;;19.00;97.40;;;;;;4966124;28;20054;-87
2022/10/19 10:32:13;;;;;;;0.85;0.85;;;19.20;95.60;;;;;;4966479;28;20049;-83
2022/10/19 10:34:58;;;;;;;0.10;0.10;;;19.30;95.10;;;;;;4868359;29;20032;-85
2022/10/19 10:37:29;;;;;;;0.47;0.47;;;19.20;95.50;;;;;;4883166;29;20105;-91
2022/10/19 10:39:57;;;;;;;0.10;0.10;;;19.50;95.20;;;;;;4883179;29;20039;-83
2022/10/19 10:42:34;;;;;;;0.32;0.32;;;19.70;94.40;;;;;;4867648;29;20269;-88
2022/10/19 10:45:01;;;;;;;0.40;0.40;;;19.90;94.80;;;;;;4882093;29;20028;-77
2022/10/19 10:47:28;;;;;;;0.30;0.30;;;19.90;93.90;;;;;;4881264;29;20036;-79
2022/10/19 10:49:59;;;;;;;3.80;3.58;;;20.20;93.70;;;;;;4881982;29;20554;-79
2022/10/19 10:52:28;;;;;;;0.85;0.85;;;20.40;92.50;;;;;;4882378;29;20304;-87
2022/10/19 10:55:13;;;;;;;0.73;0.73;;;20.30;92.10;;;;;;4882355;29;20085;-83
2022/10/19 10:57:51;;;;;;;0.43;0.43;;;20.20;92.40;;;;;;4881703;29;20144;-88
2022/10/19 11:00:22;;;;;;;1.58;1.48;;;20.30;92.50;;;;;;4882494;29;20024;-86
2022/10/19 11:02:57;;;;;;;0.20;0.20;;;20.30;92.20;;;;;;4882526;29;20044;-89
2022/10/19 11:05:30;;;;;;;0.10;0.10;;;20.20;91.90;;;;;;4889314;29;20036;-79
2022/10/19 11:08:19;;;;;;;1.67;1.57;;;20.00;92.10;;;;;;4889085;29;20294;-87
2022/10/19 11:10:59;;;;;;;0.85;0.73;;;19.80;92.40;;;;;;4880877;28;20922;-80
2022/10/19 11:14:05;;;;;;;1.48;1.38;;;19.70;92.70;;;;;;4973633;28;20033;-85
2022/10/19 11:16:37;;;;;;;0.10;0.10;;;19.70;92.70;;;;;;4965821;28;20328;-81
2022/10/19 11:19:26;;;;;;;1.38;1.27;;;19.70;93.10;;;;;;4964272;28;20520;-82
2022/10/19 11:21:56;;;;;;;3.13;2.45;;;19.60;93.20;;;;;;4962896;28;20034;-83
2022/10/19 11:24:41;;;;;;;0.47;0.47;;;19.50;93.70;;;;;;4962183;28;20019;-87
2022/10/19 11:27:22;;;;;;;1.02;1.02;;;19.60;93.40;;;;;;4961382;28;20218;-84
2022/10/19 11:30:00;;;;;;;0.52;0.52;;;19.60;93.70;;;;;;4962052;28;20043;-86
2022/10/19 11:32:55;;;;;;;1.08;1.08;;;19.90;93.60;;;;;;4961176;28;20038;-89
2022/10/19 11:35:23;;;;;;;2.92;2.75;;;20.10;92.90;;;;;;4960976;28;20048;-86
2022/10/19 11:38:04;;;;;;;0.32;0.32;;;20.20;93.10;;;;;;4961549;28;20105;-82
2022/10/19 11:40:32;;;;;;;0.85;0.85;;;20.30;93.00;;;;;;4961042;28;20041;-84
2022/10/19 11:43:09;;;;;;;0.32;0.32;;;20.40;92.40;;;;;;4960685;28;20688;-85
2022/10/19 11:45:49;;;;;;;1.15;1.05;;;20.40;92.40;;;;;;4960659;28;20400;-86
2022/10/19 11:48:47;;;;;;;0.50;0.50;;;20.20;92.60;;;;;;4960374;28;20588;-86
2022/10/19 11:51:40;;;;;;;0.57;0.57;;;20.20;92.60;;;;;;4960866;28;20097;-84
2022/10/19 11:54:33;;;;;;;0.10;0.10;;;20.10;92.80;;;;;;4960183;28;20134;-87
2022/10/19 11:57:04;;;;;;;0.10;0.10;;;20.20;92.60;;;;;;4961272;28;20027;-87
2022/10/19 12:00:05;;;;;;;0.30;0.30;;;20.00;92.90;;;;;;4960912;28;20037;-82
2022/10/19 12:02:36;;;;;;;0.70;0.70;;;20.20;92.90;;;;;;4960930;28;20031;-85
2022/10/19 12:05:25;;;;;;;1.55;1.45;;;20.40;93.50;;;;;;4960636;28;20027;-88
2022/10/19 12:08:06;;;;;;;0.55;0.55;;;20.50;92.10;;;;;;4960639;28;20026;-82
2022/10/19 12:11:22;;;;;;;7.50;1.25;;;20.40;92.20;;;;;;4961666;28;20015;-81
2022/10/19 12:13:54;;;;;;;0.20;0.20;;;20.30;92.40;;;;;;4881740;29;20440;-83
2022/10/19 12:16:22;;;;;;;1.63;1.40;;;20.30;92.40;;;;;;4882114;29;20166;-79
2022/10/19 12:18:54;;;;;;;0.55;0.55;;;20.30;92.60;;;;;;4886969;29;20037;-87
2022/10/19 12:21:30;;;;;;;0.47;0.47;;;20.40;92.80;;;;;;4882846;29;20668;-85
2022/10/19 12:24:02;;;;;;;0.85;0.85;;;20.90;92.40;;;;;;4866684;29;20308;-88
2022/10/19 12:26:33;;;;;;;1.77;1.63;;;20.50;92.20;;;;;;4867086;29;20089;-87
2022/10/19 12:29:03;;;;;;;0.10;0.10;;;20.60;92.40;;;;;;4880668;29;20124;-86
2022/10/19 12:31:30;;;;;;;1.95;1.88;;;20.40;92.70;;;;;;4880235;29;20047;-81
2022/10/19 12:34:14;;;;;;;3.00;1.65;;;20.80;92.50;;;;;;4881590;29;20044;-87
2022/10/19 12:37:09;;;;;;;0.77;0.77;;;21.30;92.40;;;;;;4881483;29;20211;-78
2022/10/19 12:39:59;;;;;;;0.15;0.15;;;21.30;91.70;;;;;;4881431;29;20085;-85
2022/10/19 12:42:41;;;;;;;8.50;3.40;;;21.80;91.50;;;;;;4862853;29;20037;-84
2022/10/19 12:45:06;;;;;;;0.45;0.45;;;22.10;90.60;;;;;;4863221;29;20220;-86
2022/10/19 12:47:32;;;;;;;0.25;0.25;;;22.40;90.40;;;;;;4883655;29;20056;-88
2022/10/19 12:49:58;;;;;;;0.25;0.25;;;22.40;89.60;;;;;;4904019;29;20103;-85
2022/10/19 12:52:43;;;;;;;0.47;0.47;;;22.80;90.00;;;;;;4903799;29;20260;-86
2022/10/19 12:55:15;;;;;;;0.52;0.52;;;22.90;89.30;;;;;;4904526;29;20504;-81
2022/10/19 12:57:46;;;;;;;0.10;0.10;;;24.90;89.70;;;;;;4904878;29;20040;-80
2022/10/19 13:00:22;;;;;;;0.50;0.50;;;23.00;87.90;;;;;;4903731;29;20044;-83
2022/10/19 13:02:56;;;;;;;0.13;0.13;;;23.20;87.10;;;;;;4888396;29;20104;-88
2022/10/19 13:05:23;;;;;;;;;;;23.60;86.40;;;;;;4904670;29;20034;-85
2022/10/19 13:07:50;;;;;;;0.40;0.40;;;23.30;85.30;;;;;;4887384;29;19933;-88
2022/10/19 13:10:24;;;;;;;0.10;0.10;;;23.30;85.90;;;;;;4903542;29;20020;-86
2022/10/19 13:12:51;;;;;;;0.20;0.20;;;23.50;85.20;;;;;;4904209;29;20048;-84
2022/10/19 13:15:46;;;;;;;0.22;0.22;;;23.70;85.40;;;;;;4903907;29;20168;-80
2022/10/19 13:18:15;;;;;;;0.73;0.73;;;23.40;85.90;;;;;;4895550;29;20036;-80
2022/10/19 13:20:51;;;;;;;0.68;0.68;;;23.30;86.10;;;;;;4946618;28;20038;-80
2022/10/19 13:23:23;;;;;;;0.20;0.20;;;23.40;86.90;;;;;;4963816;28;20499;-89
2022/10/19 13:26:27;;;;;;;1.52;1.02;;;23.90;83.00;;;;;;4964592;28;20070;-82
2022/10/19 13:28:53;;;;;;;;;;;23.90;83.20;;;;;;4966863;28;20074;-86
2022/10/19 13:31:27;;;;;;;0.20;0.20;;;24.20;82.10;;;;;;4963409;28;20277;-87
2022/10/19 13:33:53;;;;;;;0.20;0.20;;;23.90;82.50;;;;;;4964115;28;20502;-79
2022/10/19 13:36:20;;;;;;;0.70;0.70;;;24.10;82.30;;;;;;4965804;28;20165;-83
2022/10/19 13:38:46;;;;;;;0.10;0.10;;;24.20;81.00;;;;;;4946511;28;20316;-79
2022/10/19 13:41:42;;;;;;;1.95;1.85;;;24.10;81.00;;;;;;4963413;28;20026;-82
2022/10/19 13:44:32;;;;;;;0.82;0.82;;;23.80;82.00;;;;;;4965285;28;20045;-88
2022/10/19 13:47:30;;;;;;;0.47;0.47;;;24.00;81.80;;;;;;4963358;28;20037;-84
2022/10/19 13:50:02;;;;;;;1.55;1.45;;;24.60;81.90;;;;;;4963933;28;20026;-86
2022/10/19 13:53:02;;;;;;;0.38;0.38;;;24.70;80.30;;;;;;4963500;28;20738;-81
2022/10/19 13:56:22;;;;;;;0.30;0.30;;;24.80;79.00;;;;;;4883925;29;20232;-86
2022/10/19 13:59:17;;;;;;;0.20;0.20;;;26.10;79.70;;;;;;4865939;29;20248;-87